Loading...
Chambéry-Savoie Airport

LFLB

Code AITA: CMF

Chambéry, Rhône-Alpes, France

5.0°

Rosée: 1.0

Vitesse du vent

6 kt

Direction: 350° /

Altimètre

30.38 Hg

QNH : 1029

LFLB 201000Z AUTO 35006KT 9999 BKN080 05/01 Q1029 NOSIG


Chambéry-Savoie Airport

Élévation

234.0 mètres

Ville

Viviers-du-Lac

Localisation

Auvergne-Rhône-Alpes

Pays

France

Nouvelle recherche